Time;durP1;ratioP1;P1;durP2;ratioP2;P2;SDS_P1;SDS_P2;PMS_P1;PMS_P2;Temp;Humidity;BMP_temperature;BMP_pressure;BME280_temperature;BME280_humidity;BME280_pressure;Samples;Min_cycle;Max_cycle;Signal;HPM_P1;HPM_P2
2022/02/17 00:01:16;;;;;;;64.40;13.40;;;11.80;99.90;;;11.96;100.00;99141.88;5116424;28;20412;-67
2022/02/17 00:03:45;;;;;;;64.70;13.13;;;11.80;99.90;;;11.88;100.00;99123.63;5132630;27;20130;-61
2022/02/17 00:06:16;;;;;;;51.88;12.13;;;11.70;99.90;;;10.76;100.00;98926.63;5117054;28;20043;-62
2022/02/17 00:08:44;;;;;;;54.67;11.93;;;11.80;99.90;;;11.77;100.00;99094.88;5116867;28;20043;-62
2022/02/17 00:11:13;;;;;;;57.40;12.65;;;11.70;99.90;;;11.98;100.00;99140.03;5117015;28;20135;-62
2022/02/17 00:13:42;;;;;;;67.95;13.30;;;11.70;99.90;;;11.94;100.00;99154.31;5116314;28;20042;-62
2022/02/17 00:16:11;;;;;;;63.03;13.10;;;11.70;99.90;;;11.97;100.00;99144.47;5116376;28;20039;-63
2022/02/17 00:18:39;;;;;;;64.82;13.07;;;11.80;99.90;;;11.98;100.00;99162.09;5116341;28;20039;-62
2022/02/17 00:21:07;;;;;;;62.63;14.05;;;11.80;99.90;;;11.76;100.00;99134.69;5116318;28;20039;-62
2022/02/17 00:23:37;;;;;;;61.30;12.18;;;11.80;99.90;;;12.04;100.00;99198.94;5116198;28;20039;-62
2022/02/17 00:26:06;;;;;;;66.77;13.23;;;11.80;99.90;;;11.89;100.00;99161.56;5116247;28;20032;-62
2022/02/17 00:28:34;;;;;;;56.70;12.88;;;11.80;99.90;;;12.11;100.00;99187.22;5131965;27;20089;-64
2022/02/17 00:31:06;;;;;;;60.30;12.25;;;11.90;99.90;;;12.01;100.00;99183.19;5116429;28;20040;-62
2022/02/17 00:33:38;;;;;;;69.68;14.30;;;11.90;99.90;;;11.95;100.00;99194.00;5132173;27;20047;-62
2022/02/17 00:36:09;;;;;;;63.70;13.98;;;11.90;99.90;;;11.37;100.00;99131.66;5116310;28;20084;-63
2022/02/17 00:38:39;;;;;;;70.07;14.80;;;11.80;99.90;;;11.73;100.00;99216.88;5115967;28;20488;-62
2022/02/17 00:41:08;;;;;;;76.28;14.57;;;11.70;99.90;;;11.59;100.00;99219.97;5116074;28;20040;-62
2022/02/17 00:43:36;;;;;;;67.55;15.45;;;11.50;99.90;;;11.65;100.00;99224.22;5115906;28;20119;-62
2022/02/17 00:46:06;;;;;;;68.38;14.93;;;11.50;99.90;;;11.69;100.00;99229.38;5116114;28;20086;-62
2022/02/17 00:48:35;;;;;;;79.85;15.43;;;11.50;99.90;;;11.68;100.00;99226.78;5115996;28;20070;-62
2022/02/17 00:51:04;;;;;;;65.20;13.77;;;11.50;99.90;;;11.33;100.00;99163.56;5114807;28;20051;-62
2022/02/17 00:53:35;;;;;;;66.10;12.02;;;11.50;99.90;;;11.48;100.00;99214.19;5115506;28;20559;-62
2022/02/17 00:56:06;;;;;;;47.33;10.82;;;11.40;99.90;;;11.61;100.00;99241.13;5114654;28;20064;-62
2022/02/17 00:58:35;;;;;;;46.17;10.23;;;11.50;99.90;;;11.61;99.90;99239.31;5114621;28;20497;-62
2022/02/17 01:01:05;;;;;;;50.05;9.52;;;11.40;99.90;;;11.47;98.14;99216.91;5131475;27;20051;-62
2022/02/17 01:03:34;;;;;;;38.13;9.88;;;11.50;99.90;;;11.50;96.99;99236.19;5115766;28;20047;-62
2022/02/17 01:06:03;;;;;;;46.25;9.73;;;11.50;99.90;;;11.35;95.86;99235.84;5131536;27;20138;-62
2022/02/17 01:08:31;;;;;;;47.28;9.95;;;11.50;99.90;;;11.73;95.29;99264.56;5115380;28;20039;-62
2022/02/17 01:11:00;;;;;;;36.67;8.90;;;11.60;99.90;;;11.79;94.24;99282.88;5115300;27;20477;-62
2022/02/17 01:13:31;;;;;;;42.13;9.27;;;11.60;99.90;;;11.71;94.00;99280.50;5148522;27;20073;-62
2022/02/17 01:15:59;;;;;;;38.97;9.13;;;11.60;99.90;;;11.63;93.83;99277.22;5115512;28;20039;-62
2022/02/17 01:18:27;;;;;;;40.10;8.63;;;11.60;99.90;;;11.86;93.45;99286.19;5115453;28;20328;-62
2022/02/17 01:20:56;;;;;;;38.65;8.63;;;11.70;99.90;;;11.75;92.85;99282.13;5114088;28;20134;-62
2022/02/17 01:23:25;;;;;;;39.67;9.82;;;11.60;99.90;;;11.85;91.75;99287.97;5115340;28;20049;-62
2022/02/17 01:25:59;;;;;;;40.25;9.15;;;11.70;99.90;;;11.70;91.17;99310.56;5115318;28;20473;-63
2022/02/17 01:28:33;;;;;;;51.22;9.93;;;11.60;99.90;;;11.79;90.36;99312.03;5131170;27;20485;-62
2022/02/17 01:31:03;;;;;;;35.65;9.02;;;11.60;99.90;;;11.68;88.77;99307.09;5131151;27;20134;-62
2022/02/17 01:33:36;;;;;;;39.00;9.32;;;11.60;99.90;;;11.78;87.92;99310.31;5131045;27;20158;-62
2022/02/17 01:36:13;;;;;;;40.13;9.88;;;11.60;99.90;;;11.46;86.24;99291.94;5130406;27;20303;-72
2022/02/17 01:38:45;;;;;;;46.20;9.85;;;11.60;99.90;;;11.72;85.19;99306.09;5130889;27;20043;-72
2022/02/17 01:41:16;;;;;;;35.45;9.30;;;11.60;99.90;;;11.70;83.45;99315.00;5113741;28;20139;-72
2022/02/17 01:43:49;;;;;;;48.38;9.27;;;11.50;99.90;;;11.50;81.69;99315.63;5130763;27;20489;-71
2022/02/17 01:46:32;;;;;;;46.63;10.30;;;11.50;99.90;;;10.23;81.74;99103.81;5148155;27;20051;-72
2022/02/17 01:49:01;;;;;;;43.45;9.30;;;11.50;99.90;;;11.62;82.30;99354.06;5114663;28;20052;-72
2022/02/17 01:51:31;;;;;;;42.90;8.68;;;11.50;99.90;;;11.65;82.98;99368.09;5129888;27;20043;-72
2022/02/17 01:54:00;;;;;;;43.70;8.98;;;11.50;99.90;;;11.66;84.08;99361.91;5114342;28;20043;-72
2022/02/17 01:56:31;;;;;;;48.00;10.27;;;11.50;99.90;;;11.60;85.52;99367.38;5113428;28;20089;-72
2022/02/17 01:59:10;;;;;;;47.88;9.90;;;11.50;99.90;;;11.59;86.49;99380.66;5130561;27;20050;-72
2022/02/17 02:01:46;;;;;;;49.28;10.90;;;11.50;99.90;;;11.62;86.87;99370.84;5130420;27;20116;-72
2022/02/17 02:04:14;;;;;;;42.83;10.13;;;11.40;99.90;;;11.44;86.88;99381.16;5130400;27;20044;-72
2022/02/17 02:06:44;;;;;;;44.42;9.73;;;11.30;99.90;;;11.55;86.92;99390.50;5112913;28;20047;-73
2022/02/17 02:09:16;;;;;;;45.78;10.20;;;11.40;99.90;;;11.53;86.43;99400.25;5130313;27;20048;-72
2022/02/17 02:11:58;;;;;;;52.92;9.85;;;11.40;99.90;;;11.44;85.92;99412.94;5147255;27;20048;-72
2022/02/17 02:14:28;;;;;;;51.78;11.32;;;11.30;99.90;;;11.45;85.56;99420.81;5130162;27;20047;-72
2022/02/17 02:16:59;;;;;;;52.50;10.55;;;11.30;99.90;;;11.44;84.88;99404.97;5113088;28;20397;-72
2022/02/17 02:19:28;;;;;;;45.47;9.63;;;11.20;99.90;;;11.38;82.76;99448.38;5113038;28;20078;-72
2022/02/17 02:22:00;;;;;;;43.97;8.75;;;11.20;99.90;;;11.18;82.10;99407.56;5130433;27;20084;-72
2022/02/17 02:24:29;;;;;;;45.65;10.00;;;11.20;99.90;;;11.43;82.42;99466.78;5130181;27;20048;-72
2022/02/17 02:26:58;;;;;;;48.97;10.30;;;11.30;99.90;;;11.38;81.55;99455.47;5130110;27;20043;-72
2022/02/17 02:29:29;;;;;;;40.58;9.38;;;11.20;99.90;;;11.30;80.33;99474.22;5112950;28;20100;-73
2022/02/17 02:31:58;;;;;;;47.08;9.77;;;11.20;99.90;;;11.29;79.19;99468.97;5112837;28;20396;-72
2022/02/17 02:34:26;;;;;;;37.10;9.32;;;11.20;99.90;;;11.25;78.76;99475.25;5113695;28;20040;-73
2022/02/17 02:36:55;;;;;;;47.17;9.85;;;11.20;99.90;;;11.30;77.50;99489.25;5112707;28;20059;-72
2022/02/17 02:39:25;;;;;;;43.63;8.98;;;11.10;99.90;;;11.29;76.90;99484.84;5113991;28;20365;-72
2022/02/17 02:41:56;;;;;;;42.55;10.32;;;11.20;99.90;;;11.29;77.21;99492.78;5147200;27;20043;-72
2022/02/17 02:44:24;;;;;;;39.88;9.48;;;11.20;99.90;;;11.27;76.29;99516.66;5113816;28;20062;-72
2022/02/17 02:47:03;;;;;;;30.42;7.95;;;11.20;99.90;;;11.07;75.04;99491.69;5112797;28;20050;-73
2022/02/17 02:49:38;;;;;;;35.28;8.43;;;11.10;99.90;;;11.28;73.46;99513.09;5129676;27;20412;-72
2022/02/17 02:52:08;;;;;;;45.03;9.13;;;11.20;99.90;;;11.30;72.36;99532.47;5113841;28;20054;-72
2022/02/17 02:54:47;;;;;;;36.60;9.52;;;11.10;99.90;;;11.24;71.96;99500.88;5129627;27;20047;-72
2022/02/17 02:57:15;;;;;;;50.75;9.98;;;11.10;99.90;;;11.25;72.22;99507.00;5112473;28;20400;-72
2022/02/17 02:59:45;;;;;;;39.60;8.70;;;11.20;99.90;;;11.18;71.85;99526.63;5112235;28;20051;-72
2022/02/17 03:02:21;;;;;;;40.35;9.10;;;11.10;99.90;;;11.29;72.57;99508.66;5130200;28;20039;-72
2022/02/17 03:04:50;;;;;;;36.35;8.70;;;11.20;99.90;;;11.25;72.32;99526.41;5153739;27;20062;-72
2022/02/17 03:07:20;;;;;;;39.80;8.90;;;11.10;99.90;;;11.28;73.41;99522.81;5136367;27;20043;-72
2022/02/17 03:09:51;;;;;;;52.38;9.77;;;11.10;99.90;;;11.29;73.40;99532.47;5153724;27;20054;-72
2022/02/17 03:12:20;;;;;;;42.77;9.30;;;11.20;99.90;;;11.29;73.02;99554.53;5119162;28;20412;-72
2022/02/17 03:14:49;;;;;;;42.47;9.52;;;11.10;99.90;;;11.26;73.50;99544.03;5119073;28;20297;-72
2022/02/17 03:17:29;;;;;;;49.05;10.52;;;11.20;99.90;;;11.11;73.60;99509.22;5136406;27;20514;-72
2022/02/17 03:19:57;;;;;;;40.97;8.95;;;11.00;99.90;;;11.27;73.55;99550.19;5120087;28;20062;-72
2022/02/17 03:22:27;;;;;;;46.17;9.73;;;11.10;99.90;;;11.32;74.54;99557.09;5120335;27;20067;-72
2022/02/17 03:24:59;;;;;;;47.53;10.13;;;11.10;99.90;;;11.20;75.86;99560.09;5136004;27;20093;-72
2022/02/17 03:27:29;;;;;;;48.67;10.47;;;11.10;99.90;;;11.17;77.11;99551.38;5119050;28;20055;-72
2022/02/17 03:30:15;;;;;;;59.92;12.18;;;11.00;99.90;;;11.11;78.91;99555.03;5136262;27;20325;-72
2022/02/17 03:32:44;;;;;;;51.53;11.73;;;11.00;99.90;;;11.03;79.96;99559.69;5136274;27;20075;-72
2022/02/17 03:35:17;;;;;;;47.72;11.15;;;10.90;99.90;;;11.00;80.95;99553.59;5118886;28;20039;-72
2022/02/17 03:37:45;;;;;;;44.37;11.20;;;10.80;99.90;;;10.72;81.02;99508.53;5136174;27;20047;-72
2022/02/17 03:40:16;;;;;;;49.23;10.87;;;10.80;99.90;;;10.99;81.39;99568.63;5118994;28;20313;-72
2022/02/17 03:42:51;;;;;;;47.55;10.32;;;10.80;99.90;;;11.03;80.73;99550.88;5136140;27;20044;-72
2022/02/17 03:45:20;;;;;;;48.05;10.63;;;10.80;99.90;;;11.05;80.38;99575.53;5118818;28;20488;-72
2022/02/17 03:47:49;;;;;;;50.17;12.10;;;10.90;99.90;;;10.75;80.64;99569.25;5136020;27;20085;-72
2022/02/17 03:50:21;;;;;;;52.95;11.70;;;10.80;99.90;;;10.89;81.17;99605.03;5118946;28;20050;-72
2022/02/17 03:53:03;;;;;;;49.33;11.38;;;10.70;99.90;;;10.93;81.24;99626.09;5136373;27;20154;-72
2022/02/17 03:55:37;;;;;;;56.58;12.65;;;10.70;99.90;;;10.97;80.59;99617.19;5119681;27;20144;-72
2022/02/17 03:58:05;;;;;;;52.80;10.75;;;10.80;99.90;;;11.01;79.82;99640.88;5118478;28;20051;-72
2022/02/17 04:00:35;;;;;;;58.50;11.13;;;10.80;99.90;;;10.99;78.91;99639.19;5135697;27;20124;-72
2022/02/17 04:03:05;;;;;;;44.47;11.18;;;10.80;99.90;;;11.01;77.67;99651.47;5135945;27;20058;-72
2022/02/17 04:05:36;;;;;;;57.33;11.35;;;10.80;99.90;;;11.02;77.28;99661.13;5135922;27;20139;-72
2022/02/17 04:08:06;;;;;;;47.80;11.18;;;10.80;99.90;;;10.94;76.65;99657.81;5118674;28;20516;-72
2022/02/17 04:10:37;;;;;;;55.00;12.40;;;10.80;99.90;;;11.01;76.50;99670.00;5135981;27;20078;-72
2022/02/17 04:13:10;;;;;;;46.00;10.90;;;10.80;99.90;;;11.10;76.57;99666.22;5135856;27;20504;-72
2022/02/17 04:15:46;;;;;;;53.25;12.02;;;11.00;99.90;;;11.14;77.17;99674.06;5114977;28;20047;-72
2022/02/17 04:18:26;;;;;;;68.57;12.93;;;11.00;99.90;;;11.16;78.31;99671.34;5115372;28;20058;-72
2022/02/17 04:21:09;;;;;;;63.20;13.68;;;11.00;99.90;;;10.92;79.93;99670.19;5115397;28;20040;-72
2022/02/17 04:23:48;;;;;;;63.50;14.32;;;11.00;99.90;;;11.18;80.37;99722.47;5116382;28;20557;-72
2022/02/17 04:26:22;;;;;;;52.55;12.68;;;11.00;99.90;;;11.15;80.43;99715.47;5132466;27;20051;-72
2022/02/17 04:28:57;;;;;;;73.88;15.88;;;11.00;99.90;;;11.12;80.04;99726.16;5132633;27;20066;-72
2022/02/17 04:31:30;;;;;;;74.43;13.73;;;11.00;99.90;;;11.20;80.17;99731.25;5149571;27;20043;-72
2022/02/17 04:33:59;;;;;;;70.25;14.27;;;11.00;99.90;;;11.11;80.18;99723.53;5132168;27;20043;-72
2022/02/17 04:36:27;;;;;;;63.10;13.73;;;11.00;99.90;;;11.12;80.06;99718.22;5116023;28;20071;-72
2022/02/17 04:38:56;;;;;;;66.45;14.07;;;11.00;99.90;;;11.10;79.74;99737.66;5132380;27;20409;-72
2022/02/17 04:44:19;;;;;;;62.97;12.63;;;11.00;99.90;;;11.12;78.99;99746.44;5131770;27;20543;-72
2022/02/17 04:46:48;;;;;;;65.68;15.07;;;11.00;99.90;;;11.11;79.23;99742.91;5131904;27;20047;-72
2022/02/17 04:49:18;;;;;;;67.25;13.30;;;11.00;99.90;;;11.11;79.06;99742.91;5131974;27;20047;-72
2022/02/17 04:51:46;;;;;;;58.78;13.45;;;11.00;99.90;;;11.09;79.44;99754.47;5116040;28;20043;-72
2022/02/17 04:54:19;;;;;;;62.83;13.70;;;11.00;99.90;;;11.14;79.67;99752.56;5131852;27;20093;-72
2022/02/17 04:56:50;;;;;;;59.22;12.85;;;11.00;99.90;;;11.02;78.80;99759.03;5131699;27;20044;-72
2022/02/17 04:59:19;;;;;;;67.70;14.18;;;10.90;99.90;;;10.90;79.02;99728.44;5131538;27;20072;-71
2022/02/17 05:01:48;;;;;;;57.60;13.67;;;10.90;99.90;;;11.08;78.85;99782.69;5131755;27;20569;-72
2022/02/17 05:04:28;;;;;;;62.88;12.25;;;10.90;99.90;;;10.99;78.85;99785.56;5115836;28;20050;-72
2022/02/17 05:07:02;;;;;;;52.67;11.80;;;10.90;99.90;;;10.96;78.25;99758.28;5114538;28;20097;-68
2022/02/17 05:09:33;;;;;;;53.63;11.45;;;10.90;99.90;;;11.04;76.74;99783.66;5131558;27;20051;-71
2022/02/17 05:12:04;;;;;;;57.10;12.00;;;10.90;99.90;;;10.41;76.33;99716.41;5114347;28;20044;-71
2022/02/17 05:14:35;;;;;;;55.47;12.48;;;10.80;99.90;;;11.08;76.53;99808.28;5131480;27;20044;-70
2022/02/17 05:17:06;;;;;;;57.92;11.23;;;10.90;99.90;;;10.95;76.44;99799.78;5114238;28;20129;-70
2022/02/17 05:19:36;;;;;;;53.85;12.32;;;10.90;99.90;;;10.56;76.61;99737.19;5131274;27;20047;-69
2022/02/17 05:22:23;;;;;;;54.97;11.13;;;10.80;99.90;;;10.97;76.79;99816.47;5115186;28;20050;-71
2022/02/17 05:25:21;;;;;;;49.78;10.85;;;10.80;99.90;;;10.72;76.15;99808.22;5094875;28;20044;-70
2022/02/17 05:27:57;;;;;;;53.08;11.57;;;10.80;99.90;;;10.87;75.48;99831.69;5114464;28;20050;-71
2022/02/17 05:30:40;;;;;;;48.92;10.48;;;10.70;99.90;;;10.82;74.52;99851.19;5114010;28;20087;-71
2022/02/17 05:33:28;;;;;;;34.10;9.50;;;10.70;99.90;;;10.70;73.90;99847.03;5114998;28;20430;-72
2022/02/17 05:36:02;;;;;;;52.72;11.07;;;10.60;99.90;;;10.74;73.78;99869.03;5115169;28;20138;-71
2022/02/17 05:38:49;;;;;;;42.88;9.30;;;10.60;99.90;;;10.71;73.35;99875.25;5115142;28;20054;-71
2022/02/17 05:41:25;;;;;;;39.10;10.10;;;10.60;99.90;;;10.72;73.00;99853.16;5113823;28;20075;-71
2022/02/17 05:43:56;;;;;;;40.85;9.15;;;10.60;99.90;;;10.63;72.94;99871.00;5114732;28;20051;-71
2022/02/17 05:46:24;;;;;;;;;;;10.60;99.90;;;10.34;72.64;99820.50;5114160;28;20052;-71
2022/02/17 05:48:54;;;;;;;34.17;9.23;;;10.60;99.90;;;10.65;71.98;99895.63;5114518;28;19926;-71
2022/02/17 05:51:22;;;;;;;46.15;9.35;;;10.50;99.90;;;10.56;72.39;99898.47;5114486;28;20043;-71
2022/02/17 05:53:51;;;;;;;42.88;9.23;;;10.50;99.90;;;10.65;71.92;99908.84;5114479;28;20529;-71
2022/02/17 05:56:19;;;;;;;39.97;8.85;;;10.50;99.90;;;9.79;71.11;99778.44;5114618;28;20043;-71
2022/02/17 05:58:48;;;;;;;30.77;8.35;;;10.50;99.90;;;10.67;71.34;99918.50;5114727;28;20031;-72
2022/02/17 06:01:18;;;;;;;37.25;8.25;;;10.60;99.90;;;10.52;71.67;99905.59;5129989;27;20056;-71
2022/02/17 06:03:47;;;;;;;;;;;10.40;99.90;;;10.51;70.95;99919.72;5115099;28;20100;-72
2022/02/17 06:06:15;;;;;;;31.50;7.93;;;10.40;99.90;;;9.80;70.58;99774.88;5114563;27;19919;-71
2022/02/17 06:08:43;;;;;;;36.70;8.98;;;10.40;99.90;;;10.44;70.42;99906.63;5114497;28;20063;-71
2022/02/17 06:11:12;;;;;;;31.63;7.72;;;10.40;99.90;;;10.40;70.53;99921.69;5114522;28;20464;-72
2022/02/17 06:13:40;;;;;;;31.33;7.47;;;10.40;99.90;;;10.23;70.39;99880.63;5130172;27;20488;-71
2022/02/17 06:16:09;;;;;;;32.30;8.32;;;10.40;99.90;;;10.42;70.34;99956.03;5113903;28;20035;-71
2022/02/17 06:18:38;;;;;;;29.23;8.15;;;10.30;99.90;;;10.47;70.40;99954.19;5114093;28;20044;-72
2022/02/17 06:21:07;;;;;;;24.95;7.35;;;10.40;99.90;;;10.43;70.51;99957.78;5114150;27;20059;-71
2022/02/17 06:23:36;;;;;;;33.88;7.72;;;10.30;99.90;;;10.34;70.43;99968.50;5112926;28;20036;-71
2022/02/17 06:26:05;;;;;;;29.83;7.53;;;10.30;99.90;;;10.27;70.71;99980.09;5114220;28;20059;-71
2022/02/17 06:28:33;;;;;;;37.47;7.95;;;10.20;99.90;;;10.23;70.13;99983.69;5113975;28;20480;-73
2022/02/17 06:31:02;;;;;;;31.67;7.88;;;10.20;99.90;;;10.24;69.85;99982.81;5113778;28;20443;-72
2022/02/17 06:33:31;;;;;;;32.55;6.90;;;10.10;99.90;;;10.16;69.26;99982.06;5113856;28;20036;-71
2022/02/17 06:36:00;;;;;;;30.13;6.97;;;10.00;99.90;;;10.12;68.84;100005.03;5113877;28;20100;-72
2022/02/17 06:38:30;;;;;;;30.83;7.60;;;10.00;99.90;;;10.03;69.38;100003.34;5113323;28;20046;-72
2022/02/17 06:41:00;;;;;;;28.70;7.50;;;9.90;99.90;;;10.12;69.81;100031.44;5114029;28;20042;-72
2022/02/17 06:43:28;;;;;;;34.50;8.20;;;10.00;99.90;;;9.47;70.12;99908.31;5113850;28;20044;-71
2022/02/17 06:45:57;;;;;;;40.10;9.77;;;10.10;99.90;;;10.19;71.23;100021.63;5113808;28;20051;-72
2022/02/17 06:48:25;;;;;;;46.25;10.07;;;10.10;99.90;;;10.28;72.70;100050.56;5113447;28;20115;-71
2022/02/17 06:50:54;;;;;;;43.60;9.10;;;10.10;99.90;;;10.35;72.87;100057.47;5129587;27;20067;-72
2022/02/17 06:53:24;;;;;;;37.78;8.40;;;10.20;99.90;;;10.31;73.10;100067.25;5113395;28;20067;-72
2022/02/17 06:55:52;;;;;;;44.72;9.27;;;10.20;99.90;;;10.26;73.04;100055.84;5113250;28;20039;-72
2022/02/17 06:58:21;;;;;;;37.47;8.30;;;10.20;99.90;;;10.12;71.29;100052.59;5113631;28;20442;-72
2022/02/17 07:00:50;;;;;;;40.22;9.40;;;10.10;99.90;;;10.17;71.51;100065.69;5113526;28;20056;-71
2022/02/17 07:03:19;;;;;;;42.08;8.90;;;10.10;99.90;;;10.11;71.63;100085.16;5113217;28;20051;-72
2022/02/17 07:05:47;;;;;;;37.60;7.70;;;10.00;99.90;;;10.06;72.15;100079.06;5113625;28;20093;-72
2022/02/17 07:08:17;;;;;;;35.67;8.70;;;10.00;99.90;;;10.10;72.58;100095.75;5112309;28;20083;-72
2022/02/17 07:10:55;;;;;;;35.58;7.55;;;10.00;99.90;;;10.02;72.71;100093.22;5112234;28;20088;-71
2022/02/17 07:13:25;;;;;;;35.13;7.75;;;10.00;99.90;;;9.94;71.74;100090.69;5113388;28;20122;-71
2022/02/17 07:15:53;;;;;;;33.67;7.38;;;9.90;99.90;;;9.98;71.27;100097.66;5113320;28;20549;-72
2022/02/17 07:18:27;;;;;;;35.47;8.23;;;9.90;99.90;;;9.97;71.38;100117.03;5113488;28;20047;-71
2022/02/17 07:20:56;;;;;;;31.30;7.43;;;9.90;99.90;;;9.70;71.20;100056.69;5113308;28;20048;-72
2022/02/17 07:23:26;;;;;;;33.65;7.88;;;10.00;99.90;;;10.16;71.38;100144.13;5113272;28;20126;-71
2022/02/17 07:25:56;;;;;;;25.65;8.07;;;10.00;99.90;;;9.92;70.69;100118.88;5113546;28;20074;-71
2022/02/17 07:28:26;;;;;;;34.47;8.75;;;10.00;99.90;;;10.25;70.88;100133.41;5113217;28;20127;-71
2022/02/17 07:30:57;;;;;;;29.20;8.18;;;10.10;99.90;;;10.21;69.86;100125.53;5112246;28;20448;-72
2022/02/17 07:33:25;;;;;;;37.75;9.52;;;10.20;99.90;;;10.50;70.21;100153.28;5113416;28;20138;-72
2022/02/17 07:35:54;;;;;;;32.97;8.48;;;10.30;99.90;;;10.50;71.07;100170.91;5113495;28;20118;-72
2022/02/17 07:38:42;;;;;;;33.00;7.55;;;10.40;99.90;;;10.43;71.02;100185.13;5113055;28;20055;-72
2022/02/17 07:41:12;;;;;;;32.08;8.05;;;10.40;99.90;;;10.41;70.13;100169.28;5129188;28;20134;-71
2022/02/17 07:43:41;;;;;;;31.58;7.90;;;10.30;99.90;;;10.31;69.57;100166.78;5113073;28;20105;-72
2022/02/17 07:46:10;;;;;;;31.65;8.73;;;10.30;99.90;;;10.39;68.67;100149.06;5113275;28;20039;-71
2022/02/17 07:48:39;;;;;;;27.25;7.43;;;10.30;99.90;;;10.61;68.33;100198.94;5113351;28;20047;-71
2022/02/17 07:51:08;;;;;;;27.15;7.75;;;10.40;99.90;;;10.66;65.74;100193.56;5116092;28;20036;-71
2022/02/17 07:53:37;;;;;;;26.08;7.00;;;10.50;99.90;;;10.68;65.29;100191.78;5117332;28;20138;-71
2022/02/17 07:56:06;;;;;;;29.40;7.53;;;10.60;99.90;;;10.48;64.27;100148.91;5116831;28;20039;-71
2022/02/17 07:58:37;;;;;;;25.75;6.88;;;10.60;99.90;;;10.79;63.25;100211.00;5116642;28;20047;-72
2022/02/17 08:01:07;;;;;;;24.38;6.82;;;10.70;99.90;;;10.89;63.30;100191.44;5117048;28;20075;-72
2022/02/17 08:03:36;;;;;;;18.57;6.83;;;10.70;99.90;;;10.88;62.25;100211.72;5116680;28;20047;-71
2022/02/17 08:06:06;;;;;;;24.65;7.38;;;10.80;99.90;;;10.82;62.85;100226.81;5117003;28;20051;-71
2022/02/17 08:08:55;;;;;;;28.48;6.68;;;10.80;99.90;;;10.81;64.16;100231.25;5117031;28;20069;-71
2022/02/17 08:11:23;;;;;;;33.70;7.45;;;10.70;99.90;;;10.84;65.31;100255.00;5116452;28;20072;-69
2022/02/17 08:13:57;;;;;;;27.52;7.55;;;10.70;99.90;;;10.95;65.40;100249.53;5116758;28;20473;-71
2022/02/17 08:16:27;;;;;;;29.80;7.68;;;10.90;99.90;;;11.10;65.89;100256.34;5116526;28;20431;-71
2022/02/17 08:18:55;;;;;;;33.42;8.02;;;10.90;99.90;;;11.05;66.39;100237.03;5116255;28;20061;-72
2022/02/17 08:21:43;;;;;;;34.42;8.50;;;11.10;99.90;;;11.23;66.26;100265.81;5116273;28;20040;-72
2022/02/17 08:24:12;;;;;;;33.03;8.35;;;11.20;99.90;;;11.30;65.94;100278.97;5116758;28;20071;-73
2022/02/17 08:26:42;;;;;;;36.55;7.55;;;11.20;99.90;;;11.28;65.41;100270.16;5116166;28;20043;-73
2022/02/17 08:29:12;;;;;;;33.20;8.37;;;11.20;99.90;;;11.42;64.14;100283.19;5116587;28;20404;-72
2022/02/17 08:31:42;;;;;;;27.17;6.40;;;11.30;99.90;;;11.11;62.83;100242.22;5116090;28;20339;-71
2022/02/17 08:34:11;;;;;;;25.95;6.78;;;11.20;99.90;;;11.10;63.21;100286.34;5115989;28;20104;-71
2022/02/17 08:36:39;;;;;;;29.15;6.75;;;11.00;99.90;;;11.39;63.50;100283.22;5116001;28;20130;-70
2022/02/17 08:39:08;;;;;;;33.13;7.00;;;11.20;99.90;;;11.38;63.00;100286.78;5115821;28;20040;-71
2022/02/17 08:41:37;;;;;;;27.40;8.13;;;11.30;99.90;;;11.47;63.12;100290.13;5115970;28;20040;-70
2022/02/17 08:44:07;;;;;;;24.13;7.32;;;11.30;99.90;;;11.62;62.81;100299.56;5115950;28;20067;-69
2022/02/17 08:46:37;;;;;;;24.95;8.18;;;11.50;99.90;;;11.87;62.16;100300.91;5116136;28;20052;-69
2022/02/17 08:49:07;;;;;;;29.77;7.50;;;11.70;99.90;;;11.87;61.21;100290.31;5115825;28;20042;-70
2022/02/17 08:51:37;;;;;;;26.70;7.88;;;11.80;99.90;;;12.10;61.37;100301.34;5116067;28;20217;-71
2022/02/17 08:54:06;;;;;;;26.48;7.85;;;12.00;99.90;;;12.31;61.36;100323.91;5115795;28;20408;-70
2022/02/17 08:56:41;;;;;;;29.50;7.45;;;12.10;99.90;;;12.50;60.94;100320.81;5116308;27;20044;-70
2022/02/17 08:59:09;;;;;;;28.90;7.22;;;12.30;99.90;;;12.73;60.39;100319.47;5115907;28;20051;-71
2022/02/17 09:01:39;;;;;;;29.70;7.95;;;12.60;99.90;;;12.74;59.45;100313.28;5115642;28;20447;-70
2022/02/17 09:04:07;;;;;;;32.07;7.57;;;12.70;99.90;;;12.78;59.38;100345.00;5116116;28;20069;-71
2022/02/17 09:06:36;;;;;;;23.52;6.68;;;12.70;99.90;;;12.72;59.57;100339.81;5115360;28;20130;-70
2022/02/17 09:09:04;;;;;;;25.63;7.40;;;12.60;99.90;;;12.72;57.83;100339.81;5115382;28;20047;-72
2022/02/17 09:11:33;;;;;;;22.33;6.40;;;12.60;99.90;;;12.67;56.89;100324.00;5115718;27;20097;-70
2022/02/17 09:14:02;;;;;;;20.02;6.53;;;12.60;99.90;;;12.43;56.71;100342.19;5115310;28;20044;-70
2022/02/17 09:16:34;;;;;;;21.98;6.78;;;12.50;99.90;;;12.54;56.81;100356.16;5115251;28;20047;-70
2022/02/17 09:19:06;;;;;;;21.45;7.03;;;12.50;99.90;;;12.13;57.12;100354.31;5115445;28;20035;-71
2022/02/17 09:21:36;;;;;;;21.90;6.13;;;12.20;99.90;;;12.15;57.39;100341.91;5115715;28;20134;-70
2022/02/17 09:24:06;;;;;;;24.92;6.57;;;12.20;99.90;;;12.50;57.02;100344.69;5114985;28;20089;-71
2022/02/17 09:26:36;;;;;;;;;;;12.40;99.90;;;12.36;57.26;100361.81;5115499;28;20093;-71
2022/02/17 09:29:06;;;;;;;19.90;5.82;;;12.30;99.90;;;12.42;57.68;100364.34;5114873;28;19920;-71
2022/02/17 09:31:55;;;;;;;24.90;6.53;;;12.30;99.90;;;12.16;57.74;100348.06;5114836;28;20119;-71
2022/02/17 09:34:26;;;;;;;18.98;6.93;;;12.20;99.90;;;12.56;57.71;100387.03;5114868;28;20066;-71
2022/02/17 09:36:54;;;;;;;23.88;6.72;;;12.40;99.90;;;12.57;58.13;100390.56;5115164;28;20092;-71
2022/02/17 09:39:25;;;;;;;29.70;7.55;;;12.50;99.90;;;13.17;57.25;100394.59;5114636;28;20534;-71
2022/02/17 09:41:54;;;;;;;25.38;6.25;;;12.90;99.90;;;12.90;57.55;100405.78;5114709;28;20553;-71
2022/02/17 09:44:23;;;;;;;28.05;7.18;;;12.80;99.90;;;12.88;57.48;100401.41;5114638;28;20075;-71
2022/02/17 09:46:52;;;;;;;26.60;7.72;;;12.80;99.90;;;12.50;57.45;100365.06;5114819;28;20092;-71
2022/02/17 09:49:24;;;;;;;24.13;7.38;;;12.70;99.90;;;13.03;57.22;100420.56;5114515;28;20584;-71
2022/02/17 09:51:53;;;;;;;20.80;6.97;;;12.80;99.90;;;13.19;56.10;100406.06;5114896;28;20074;-68
2022/02/17 09:54:22;;;;;;;20.85;6.80;;;13.10;99.90;;;13.13;56.09;100423.91;5130520;27;20044;-73
2022/02/17 09:56:51;;;;;;;18.45;6.70;;;13.00;99.90;;;13.31;55.37;100442.09;5114536;28;20043;-71
2022/02/17 09:59:20;;;;;;;24.45;7.18;;;13.20;99.90;;;13.29;54.36;100428.84;5114408;28;20127;-72
2022/02/17 10:01:56;;;;;;;24.10;6.45;;;13.20;99.90;;;13.07;54.86;100405.44;5114856;28;20067;-72
2022/02/17 10:04:28;;;;;;;20.42;7.20;;;13.10;99.90;;;13.03;54.26;100412.59;5114621;28;20085;-72
2022/02/17 10:06:58;;;;;;;20.90;6.65;;;13.00;99.90;;;13.03;54.86;100447.13;5114500;28;20040;-71
2022/02/17 10:09:37;;;;;;;19.10;5.93;;;13.00;99.90;;;12.96;55.03;100424.25;5114461;28;20044;-72
2022/02/17 10:12:08;;;;;;;16.20;6.53;;;13.00;99.90;;;13.60;54.67;100442.31;5113994;28;20109;-73
2022/02/17 10:14:39;;;;;;;17.83;5.00;;;13.40;99.90;;;13.42;55.05;100438.28;5114438;28;20130;-73
2022/02/17 10:17:10;;;;;;;15.73;6.07;;;13.40;99.90;;;13.87;54.18;100475.31;5130174;27;20067;-73
2022/02/17 10:19:42;;;;;;;;;;;13.70;99.90;;;14.05;53.87;100481.03;5114192;28;20047;-73
2022/02/17 10:22:13;;;;;;;17.42;5.25;;;13.80;99.90;;;14.22;52.18;100476.19;5114166;28;19949;-73
2022/02/17 10:24:46;;;;;;;16.48;5.78;;;14.10;99.90;;;14.02;51.83;100478.47;5114007;28;20393;-74
2022/02/17 10:27:16;;;;;;;19.58;5.85;;;14.00;99.90;;;13.76;52.35;100480.03;5130136;27;20055;-76